sensor_id;sensor_type;location;lat;lon;timestamp;P1;durP1;ratioP1;P2;durP2;ratioP2
69754;SDS011;57023;52.218;5.158;2023-04-03T00:01:35;4.88;;;2.38;;
69754;SDS011;57023;52.218;5.158;2023-04-03T00:04:03;4.45;;;2.50;;
69754;SDS011;57023;52.218;5.158;2023-04-03T00:06:29;5.38;;;2.80;;
69754;SDS011;57023;52.218;5.158;2023-04-03T00:08:54;6.07;;;2.60;;
69754;SDS011;57023;52.218;5.158;2023-04-03T00:11:20;3.78;;;2.22;;
69754;SDS011;57023;52.218;5.158;2023-04-03T00:13:45;5.20;;;2.55;;
69754;SDS011;57023;52.218;5.158;2023-04-03T00:16:11;6.35;;;2.50;;
69754;SDS011;57023;52.218;5.158;2023-04-03T00:18:37;4.88;;;2.40;;
69754;SDS011;57023;52.218;5.158;2023-04-03T00:21:04;4.30;;;2.63;;
69754;SDS011;57023;52.218;5.158;2023-04-03T00:23:30;5.13;;;2.58;;
69754;SDS011;57023;52.218;5.158;2023-04-03T00:25:55;5.05;;;3.13;;
69754;SDS011;57023;52.218;5.158;2023-04-03T00:28:21;5.22;;;2.60;;
69754;SDS011;57023;52.218;5.158;2023-04-03T00:30:48;5.40;;;2.58;;
69754;SDS011;57023;52.218;5.158;2023-04-03T00:33:14;4.55;;;2.50;;
69754;SDS011;57023;52.218;5.158;2023-04-03T00:35:39;4.88;;;2.60;;
69754;SDS011;57023;52.218;5.158;2023-04-03T00:38:05;4.70;;;2.60;;
69754;SDS011;57023;52.218;5.158;2023-04-03T00:40:33;4.32;;;2.50;;
69754;SDS011;57023;52.218;5.158;2023-04-03T00:43:00;4.25;;;2.40;;
69754;SDS011;57023;52.218;5.158;2023-04-03T00:45:27;4.63;;;2.60;;
69754;SDS011;57023;52.218;5.158;2023-04-03T00:48:03;4.55;;;2.47;;
69754;SDS011;57023;52.218;5.158;2023-04-03T00:50:33;4.95;;;2.45;;
69754;SDS011;57023;52.218;5.158;2023-04-03T00:53:04;5.82;;;2.40;;
69754;SDS011;57023;52.218;5.158;2023-04-03T00:55:34;5.80;;;2.30;;
69754;SDS011;57023;52.218;5.158;2023-04-03T00:58:02;4.82;;;2.45;;
69754;SDS011;57023;52.218;5.158;2023-04-03T01:00:28;4.18;;;2.40;;
69754;SDS011;57023;52.218;5.158;2023-04-03T01:02:56;7.53;;;2.80;;
69754;SDS011;57023;52.218;5.158;2023-04-03T01:05:22;5.32;;;2.50;;
69754;SDS011;57023;52.218;5.158;2023-04-03T01:07:48;4.60;;;2.50;;
69754;SDS011;57023;52.218;5.158;2023-04-03T01:10:15;5.80;;;2.67;;
69754;SDS011;57023;52.218;5.158;2023-04-03T01:15:16;6.55;;;2.85;;
69754;SDS011;57023;52.218;5.158;2023-04-03T01:17:45;5.55;;;2.63;;
69754;SDS011;57023;52.218;5.158;2023-04-03T01:20:31;6.60;;;2.85;;
69754;SDS011;57023;52.218;5.158;2023-04-03T01:25:38;6.05;;;2.63;;
69754;SDS011;57023;52.218;5.158;2023-04-03T01:28:30;4.75;;;2.70;;
69754;SDS011;57023;52.218;5.158;2023-04-03T01:33:24;5.50;;;2.60;;
69754;SDS011;57023;52.218;5.158;2023-04-03T01:35:50;5.82;;;2.80;;
69754;SDS011;57023;52.218;5.158;2023-04-03T01:38:15;4.43;;;2.75;;
69754;SDS011;57023;52.218;5.158;2023-04-03T01:40:41;6.03;;;2.40;;
69754;SDS011;57023;52.218;5.158;2023-04-03T01:43:06;7.18;;;2.90;;
69754;SDS011;57023;52.218;5.158;2023-04-03T01:45:31;5.88;;;2.80;;
69754;SDS011;57023;52.218;5.158;2023-04-03T01:47:57;5.93;;;2.80;;
69754;SDS011;57023;52.218;5.158;2023-04-03T01:50:22;5.78;;;2.80;;
69754;SDS011;57023;52.218;5.158;2023-04-03T01:52:47;7.40;;;2.72;;
69754;SDS011;57023;52.218;5.158;2023-04-03T01:55:13;6.63;;;2.90;;
69754;SDS011;57023;52.218;5.158;2023-04-03T01:57:38;6.53;;;3.00;;
69754;SDS011;57023;52.218;5.158;2023-04-03T02:00:03;5.82;;;2.97;;
69754;SDS011;57023;52.218;5.158;2023-04-03T02:02:29;5.55;;;2.75;;
69754;SDS011;57023;52.218;5.158;2023-04-03T02:04:55;4.95;;;2.70;;
69754;SDS011;57023;52.218;5.158;2023-04-03T02:07:20;6.72;;;3.00;;
69754;SDS011;57023;52.218;5.158;2023-04-03T02:09:46;4.68;;;2.90;;
69754;SDS011;57023;52.218;5.158;2023-04-03T02:12:11;5.90;;;2.70;;
69754;SDS011;57023;52.218;5.158;2023-04-03T02:14:36;7.22;;;2.88;;
69754;SDS011;57023;52.218;5.158;2023-04-03T02:17:02;5.95;;;2.60;;
69754;SDS011;57023;52.218;5.158;2023-04-03T02:19:30;7.50;;;2.88;;
69754;SDS011;57023;52.218;5.158;2023-04-03T02:21:56;6.35;;;2.90;;
69754;SDS011;57023;52.218;5.158;2023-04-03T02:24:21;7.20;;;3.20;;
69754;SDS011;57023;52.218;5.158;2023-04-03T02:26:46;5.38;;;2.88;;
69754;SDS011;57023;52.218;5.158;2023-04-03T02:29:12;5.63;;;3.03;;
69754;SDS011;57023;52.218;5.158;2023-04-03T02:31:37;4.90;;;2.85;;
69754;SDS011;57023;52.218;5.158;2023-04-03T02:34:02;7.03;;;3.05;;
69754;SDS011;57023;52.218;5.158;2023-04-03T02:36:28;9.60;;;3.08;;
69754;SDS011;57023;52.218;5.158;2023-04-03T02:38:56;6.38;;;2.85;;
69754;SDS011;57023;52.218;5.158;2023-04-03T02:41:21;7.15;;;3.08;;
69754;SDS011;57023;52.218;5.158;2023-04-03T02:43:46;5.82;;;3.00;;
69754;SDS011;57023;52.218;5.158;2023-04-03T02:46:12;4.93;;;2.90;;
69754;SDS011;57023;52.218;5.158;2023-04-03T02:51:05;5.00;;;3.00;;
69754;SDS011;57023;52.218;5.158;2023-04-03T02:53:32;6.32;;;2.50;;
69754;SDS011;57023;52.218;5.158;2023-04-03T02:55:58;8.38;;;3.00;;
69754;SDS011;57023;52.218;5.158;2023-04-03T02:58:23;6.72;;;3.10;;
69754;SDS011;57023;52.218;5.158;2023-04-03T03:00:48;5.90;;;3.20;;
69754;SDS011;57023;52.218;5.158;2023-04-03T03:03:14;5.65;;;2.90;;
69754;SDS011;57023;52.218;5.158;2023-04-03T03:05:39;5.15;;;3.10;;
69754;SDS011;57023;52.218;5.158;2023-04-03T03:08:06;5.80;;;2.90;;
69754;SDS011;57023;52.218;5.158;2023-04-03T03:10:34;7.15;;;3.30;;
69754;SDS011;57023;52.218;5.158;2023-04-03T03:13:02;7.53;;;3.22;;
69754;SDS011;57023;52.218;5.158;2023-04-03T03:15:27;8.07;;;3.40;;
69754;SDS011;57023;52.218;5.158;2023-04-03T03:17:53;5.88;;;3.13;;
69754;SDS011;57023;52.218;5.158;2023-04-03T03:20:18;7.65;;;3.35;;
69754;SDS011;57023;52.218;5.158;2023-04-03T03:22:43;7.68;;;3.22;;
69754;SDS011;57023;52.218;5.158;2023-04-03T03:25:09;7.32;;;3.45;;
69754;SDS011;57023;52.218;5.158;2023-04-03T03:27:34;6.13;;;2.80;;
69754;SDS011;57023;52.218;5.158;2023-04-03T03:29:59;5.95;;;3.10;;
69754;SDS011;57023;52.218;5.158;2023-04-03T03:32:25;7.70;;;3.10;;
69754;SDS011;57023;52.218;5.158;2023-04-03T03:34:50;7.60;;;3.20;;
69754;SDS011;57023;52.218;5.158;2023-04-03T03:37:15;7.18;;;3.42;;
69754;SDS011;57023;52.218;5.158;2023-04-03T03:39:41;7.78;;;3.63;;
69754;SDS011;57023;52.218;5.158;2023-04-03T03:42:09;6.10;;;3.28;;
69754;SDS011;57023;52.218;5.158;2023-04-03T03:44:34;7.57;;;3.20;;
69754;SDS011;57023;52.218;5.158;2023-04-03T03:46:59;10.05;;;4.00;;
69754;SDS011;57023;52.218;5.158;2023-04-03T03:49:25;8.10;;;3.38;;
69754;SDS011;57023;52.218;5.158;2023-04-03T03:51:51;6.68;;;3.17;;
69754;SDS011;57023;52.218;5.158;2023-04-03T03:54:16;7.05;;;3.60;;
69754;SDS011;57023;52.218;5.158;2023-04-03T03:56:42;8.18;;;3.38;;
69754;SDS011;57023;52.218;5.158;2023-04-03T03:59:11;6.10;;;3.40;;
69754;SDS011;57023;52.218;5.158;2023-04-03T04:01:37;7.95;;;3.72;;
69754;SDS011;57023;52.218;5.158;2023-04-03T04:04:02;10.30;;;5.78;;
69754;SDS011;57023;52.218;5.158;2023-04-03T04:06:27;6.65;;;3.17;;
69754;SDS011;57023;52.218;5.158;2023-04-03T04:08:53;7.22;;;3.47;;
69754;SDS011;57023;52.218;5.158;2023-04-03T04:11:18;6.80;;;3.40;;
69754;SDS011;57023;52.218;5.158;2023-04-03T04:13:44;7.78;;;4.05;;
69754;SDS011;57023;52.218;5.158;2023-04-03T04:16:10;6.97;;;3.60;;
69754;SDS011;57023;52.218;5.158;2023-04-03T04:18:35;6.35;;;3.40;;
69754;SDS011;57023;52.218;5.158;2023-04-03T04:21:01;7.78;;;3.83;;
69754;SDS011;57023;52.218;5.158;2023-04-03T04:23:26;7.97;;;3.88;;
69754;SDS011;57023;52.218;5.158;2023-04-03T04:25:51;7.80;;;3.60;;
69754;SDS011;57023;52.218;5.158;2023-04-03T04:28:17;6.45;;;3.55;;
69754;SDS011;57023;52.218;5.158;2023-04-03T04:30:42;8.50;;;3.72;;
69754;SDS011;57023;52.218;5.158;2023-04-03T04:33:08;8.30;;;3.80;;
69754;SDS011;57023;52.218;5.158;2023-04-03T04:35:33;6.53;;;3.67;;
69754;SDS011;57023;52.218;5.158;2023-04-03T04:37:59;9.35;;;3.60;;
69754;SDS011;57023;52.218;5.158;2023-04-03T04:40:25;9.13;;;3.22;;
69754;SDS011;57023;52.218;5.158;2023-04-03T04:42:50;6.40;;;3.35;;
69754;SDS011;57023;52.218;5.158;2023-04-03T04:45:15;7.43;;;3.33;;
69754;SDS011;57023;52.218;5.158;2023-04-03T04:47:41;9.43;;;4.18;;
69754;SDS011;57023;52.218;5.158;2023-04-03T04:50:07;8.00;;;3.60;;
69754;SDS011;57023;52.218;5.158;2023-04-03T04:52:32;8.02;;;3.67;;
69754;SDS011;57023;52.218;5.158;2023-04-03T04:54:58;6.93;;;3.75;;
69754;SDS011;57023;52.218;5.158;2023-04-03T04:57:23;8.77;;;3.90;;
69754;SDS011;57023;52.218;5.158;2023-04-03T04:59:51;8.20;;;3.58;;
69754;SDS011;57023;52.218;5.158;2023-04-03T05:02:17;7.82;;;3.78;;
69754;SDS011;57023;52.218;5.158;2023-04-03T05:04:42;9.95;;;4.22;;
69754;SDS011;57023;52.218;5.158;2023-04-03T05:07:07;11.20;;;4.43;;
69754;SDS011;57023;52.218;5.158;2023-04-03T05:09:33;9.45;;;4.20;;
69754;SDS011;57023;52.218;5.158;2023-04-03T05:11:58;9.52;;;4.03;;
69754;SDS011;57023;52.218;5.158;2023-04-03T05:14:24;8.52;;;3.85;;
69754;SDS011;57023;52.218;5.158;2023-04-03T05:16:49;8.75;;;3.85;;
69754;SDS011;57023;52.218;5.158;2023-04-03T05:19:17;6.88;;;3.80;;
69754;SDS011;57023;52.218;5.158;2023-04-03T05:21:43;8.65;;;4.28;;
69754;SDS011;57023;52.218;5.158;2023-04-03T05:24:08;7.65;;;4.35;;
69754;SDS011;57023;52.218;5.158;2023-04-03T05:26:34;7.47;;;4.00;;
69754;SDS011;57023;52.218;5.158;2023-04-03T05:29:00;10.45;;;4.40;;
69754;SDS011;57023;52.218;5.158;2023-04-03T05:31:25;9.60;;;4.20;;
69754;SDS011;57023;52.218;5.158;2023-04-03T05:33:54;7.32;;;4.40;;
69754;SDS011;57023;52.218;5.158;2023-04-03T05:36:19;7.07;;;3.88;;
69754;SDS011;57023;52.218;5.158;2023-04-03T05:38:45;10.00;;;4.35;;
69754;SDS011;57023;52.218;5.158;2023-04-03T05:41:10;7.55;;;3.90;;
69754;SDS011;57023;52.218;5.158;2023-04-03T05:43:35;9.93;;;4.20;;
69754;SDS011;57023;52.218;5.158;2023-04-03T05:46:02;8.98;;;4.40;;
69754;SDS011;57023;52.218;5.158;2023-04-03T05:48:28;7.70;;;4.07;;
69754;SDS011;57023;52.218;5.158;2023-04-03T05:50:53;7.93;;;3.95;;
69754;SDS011;57023;52.218;5.158;2023-04-03T05:53:20;10.18;;;4.53;;
69754;SDS011;57023;52.218;5.158;2023-04-03T05:55:47;6.68;;;3.95;;
69754;SDS011;57023;52.218;5.158;2023-04-03T05:58:13;8.30;;;4.25;;
69754;SDS011;57023;52.218;5.158;2023-04-03T06:00:38;10.32;;;4.20;;
69754;SDS011;57023;52.218;5.158;2023-04-03T06:03:03;9.63;;;4.40;;
69754;SDS011;57023;52.218;5.158;2023-04-03T06:05:29;9.02;;;4.75;;
69754;SDS011;57023;52.218;5.158;2023-04-03T06:07:54;9.15;;;4.30;;
69754;SDS011;57023;52.218;5.158;2023-04-03T06:10:20;7.28;;;4.03;;
69754;SDS011;57023;52.218;5.158;2023-04-03T06:12:46;10.20;;;4.78;;
69754;SDS011;57023;52.218;5.158;2023-04-03T06:15:11;11.52;;;4.38;;
69754;SDS011;57023;52.218;5.158;2023-04-03T06:17:36;9.63;;;4.70;;
69754;SDS011;57023;52.218;5.158;2023-04-03T06:20:02;11.75;;;4.80;;
69754;SDS011;57023;52.218;5.158;2023-04-03T06:22:28;9.60;;;4.53;;
69754;SDS011;57023;52.218;5.158;2023-04-03T06:24:55;8.32;;;4.13;;
69754;SDS011;57023;52.218;5.158;2023-04-03T06:27:21;9.25;;;4.32;;
69754;SDS011;57023;52.218;5.158;2023-04-03T06:29:46;8.60;;;4.10;;
69754;SDS011;57023;52.218;5.158;2023-04-03T06:32:12;7.50;;;3.75;;
69754;SDS011;57023;52.218;5.158;2023-04-03T06:34:37;7.53;;;3.50;;
69754;SDS011;57023;52.218;5.158;2023-04-03T06:37:02;8.07;;;4.40;;
69754;SDS011;57023;52.218;5.158;2023-04-03T06:39:28;7.28;;;3.65;;
69754;SDS011;57023;52.218;5.158;2023-04-03T06:41:54;8.88;;;4.95;;
69754;SDS011;57023;52.218;5.158;2023-04-03T06:44:19;8.02;;;4.20;;
69754;SDS011;57023;52.218;5.158;2023-04-03T06:46:45;9.30;;;3.90;;
69754;SDS011;57023;52.218;5.158;2023-04-03T06:49:11;8.50;;;3.88;;
69754;SDS011;57023;52.218;5.158;2023-04-03T06:51:36;11.20;;;4.18;;
69754;SDS011;57023;52.218;5.158;2023-04-03T06:54:02;8.88;;;4.05;;
69754;SDS011;57023;52.218;5.158;2023-04-03T06:56:32;10.82;;;4.18;;
69754;SDS011;57023;52.218;5.158;2023-04-03T06:58:57;10.63;;;4.47;;
69754;SDS011;57023;52.218;5.158;2023-04-03T07:01:24;7.70;;;3.80;;
69754;SDS011;57023;52.218;5.158;2023-04-03T07:03:52;5.97;;;3.50;;
69754;SDS011;57023;52.218;5.158;2023-04-03T07:06:18;7.93;;;3.63;;
69754;SDS011;57023;52.218;5.158;2023-04-03T07:08:44;9.15;;;3.95;;
69754;SDS011;57023;52.218;5.158;2023-04-03T07:11:10;8.98;;;3.67;;
69754;SDS011;57023;52.218;5.158;2023-04-03T07:13:36;7.72;;;3.78;;
69754;SDS011;57023;52.218;5.158;2023-04-03T07:16:02;11.82;;;3.88;;
69754;SDS011;57023;52.218;5.158;2023-04-03T07:18:28;8.60;;;3.80;;
69754;SDS011;57023;52.218;5.158;2023-04-03T07:20:54;6.85;;;3.40;;
69754;SDS011;57023;52.218;5.158;2023-04-03T07:23:19;7.70;;;3.60;;
69754;SDS011;57023;52.218;5.158;2023-04-03T07:25:45;7.60;;;3.90;;
69754;SDS011;57023;52.218;5.158;2023-04-03T07:28:11;8.75;;;4.32;;
69754;SDS011;57023;52.218;5.158;2023-04-03T07:30:47;8.63;;;3.80;;
69754;SDS011;57023;52.218;5.158;2023-04-03T07:33:14;7.90;;;3.63;;
69754;SDS011;57023;52.218;5.158;2023-04-03T07:35:41;9.77;;;3.42;;
69754;SDS011;57023;52.218;5.158;2023-04-03T07:38:06;12.57;;;3.80;;
69754;SDS011;57023;52.218;5.158;2023-04-03T07:40:34;6.78;;;3.60;;
69754;SDS011;57023;52.218;5.158;2023-04-03T07:43:00;9.07;;;3.55;;
69754;SDS011;57023;52.218;5.158;2023-04-03T07:45:26;7.85;;;3.60;;
69754;SDS011;57023;52.218;5.158;2023-04-03T07:47:51;7.22;;;3.55;;
69754;SDS011;57023;52.218;5.158;2023-04-03T07:50:17;6.50;;;3.30;;
69754;SDS011;57023;52.218;5.158;2023-04-03T07:52:43;10.48;;;3.60;;
69754;SDS011;57023;52.218;5.158;2023-04-03T07:55:09;6.90;;;3.30;;
69754;SDS011;57023;52.218;5.158;2023-04-03T07:57:35;6.78;;;3.42;;
69754;SDS011;57023;52.218;5.158;2023-04-03T08:00:01;8.20;;;3.72;;
69754;SDS011;57023;52.218;5.158;2023-04-03T08:02:27;9.45;;;3.47;;
69754;SDS011;57023;52.218;5.158;2023-04-03T08:04:52;8.15;;;3.65;;
69754;SDS011;57023;52.218;5.158;2023-04-03T08:07:18;6.65;;;3.42;;
69754;SDS011;57023;52.218;5.158;2023-04-03T08:09:43;6.78;;;3.15;;
69754;SDS011;57023;52.218;5.158;2023-04-03T08:12:09;6.35;;;3.08;;
69754;SDS011;57023;52.218;5.158;2023-04-03T08:14:36;7.10;;;3.30;;
69754;SDS011;57023;52.218;5.158;2023-04-03T08:17:02;8.95;;;3.65;;
69754;SDS011;57023;52.218;5.158;2023-04-03T08:19:29;11.45;;;3.10;;
69754;SDS011;57023;52.218;5.158;2023-04-03T08:21:54;7.25;;;3.25;;
69754;SDS011;57023;52.218;5.158;2023-04-03T08:24:20;7.65;;;3.00;;
69754;SDS011;57023;52.218;5.158;2023-04-03T08:26:45;5.13;;;2.90;;
69754;SDS011;57023;52.218;5.158;2023-04-03T08:29:10;7.40;;;3.17;;
69754;SDS011;57023;52.218;5.158;2023-04-03T08:31:36;6.18;;;3.17;;
69754;SDS011;57023;52.218;5.158;2023-04-03T08:34:01;7.57;;;3.10;;
69754;SDS011;57023;52.218;5.158;2023-04-03T08:36:27;6.47;;;2.90;;
69754;SDS011;57023;52.218;5.158;2023-04-03T08:38:55;7.03;;;2.75;;
69754;SDS011;57023;52.218;5.158;2023-04-03T08:46:39;4.85;;;2.53;;
69754;SDS011;57023;52.218;5.158;2023-04-03T08:49:11;4.95;;;2.55;;
69754;SDS011;57023;52.218;5.158;2023-04-03T08:52:01;7.05;;;2.60;;
69754;SDS011;57023;52.218;5.158;2023-04-03T08:54:30;6.30;;;2.70;;
69754;SDS011;57023;52.218;5.158;2023-04-03T08:56:58;5.60;;;2.90;;
69754;SDS011;57023;52.218;5.158;2023-04-03T08:59:29;5.60;;;2.50;;
69754;SDS011;57023;52.218;5.158;2023-04-03T09:01:59;5.43;;;2.80;;
69754;SDS011;57023;52.218;5.158;2023-04-03T09:04:29;6.30;;;2.50;;
69754;SDS011;57023;52.218;5.158;2023-04-03T09:06:58;4.80;;;2.40;;
69754;SDS011;57023;52.218;5.158;2023-04-03T09:09:35;4.65;;;2.20;;
69754;SDS011;57023;52.218;5.158;2023-04-03T09:12:11;5.90;;;2.33;;
69754;SDS011;57023;52.218;5.158;2023-04-03T09:17:41;5.10;;;2.33;;
69754;SDS011;57023;52.218;5.158;2023-04-03T09:22:34;4.85;;;2.20;;
69754;SDS011;57023;52.218;5.158;2023-04-03T09:25:07;4.50;;;2.20;;
69754;SDS011;57023;52.218;5.158;2023-04-03T09:27:37;4.00;;;2.20;;
69754;SDS011;57023;52.218;5.158;2023-04-03T09:30:04;5.00;;;2.28;;
69754;SDS011;57023;52.218;5.158;2023-04-03T09:32:35;4.55;;;2.20;;
69754;SDS011;57023;52.218;5.158;2023-04-03T09:35:15;3.72;;;1.70;;
69754;SDS011;57023;52.218;5.158;2023-04-03T09:37:45;3.63;;;2.05;;
69754;SDS011;57023;52.218;5.158;2023-04-03T09:40:34;4.05;;;2.10;;
69754;SDS011;57023;52.218;5.158;2023-04-03T09:45:49;4.22;;;2.03;;
69754;SDS011;57023;52.218;5.158;2023-04-03T09:48:23;4.97;;;2.10;;
69754;SDS011;57023;52.218;5.158;2023-04-03T09:53:35;5.25;;;2.00;;
69754;SDS011;57023;52.218;5.158;2023-04-03T09:56:18;5.22;;;2.10;;
69754;SDS011;57023;52.218;5.158;2023-04-03T09:58:50;4.88;;;2.05;;
69754;SDS011;57023;52.218;5.158;2023-04-03T10:01:31;5.93;;;2.28;;
69754;SDS011;57023;52.218;5.158;2023-04-03T10:04:05;3.05;;;1.63;;
69754;SDS011;57023;52.218;5.158;2023-04-03T10:06:31;3.53;;;1.70;;
69754;SDS011;57023;52.218;5.158;2023-04-03T10:11:56;5.97;;;2.10;;
69754;SDS011;57023;52.218;5.158;2023-04-03T10:14:29;3.75;;;1.80;;
69754;SDS011;57023;52.218;5.158;2023-04-03T10:25:00;3.75;;;1.92;;
69754;SDS011;57023;52.218;5.158;2023-04-03T10:27:38;5.20;;;2.45;;
69754;SDS011;57023;52.218;5.158;2023-04-03T10:38:39;2.92;;;1.58;;
69754;SDS011;57023;52.218;5.158;2023-04-03T10:44:14;4.40;;;1.83;;
69754;SDS011;57023;52.218;5.158;2023-04-03T10:46:47;3.85;;;1.67;;
69754;SDS011;57023;52.218;5.158;2023-04-03T10:49:19;3.90;;;2.10;;
69754;SDS011;57023;52.218;5.158;2023-04-03T10:51:53;3.90;;;2.10;;
69754;SDS011;57023;52.218;5.158;2023-04-03T10:54:39;3.10;;;1.67;;
69754;SDS011;57023;52.218;5.158;2023-04-03T10:57:08;3.00;;;1.70;;
69754;SDS011;57023;52.218;5.158;2023-04-03T10:59:48;3.33;;;2.00;;
69754;SDS011;57023;52.218;5.158;2023-04-03T11:05:07;3.50;;;1.80;;
69754;SDS011;57023;52.218;5.158;2023-04-03T11:07:51;3.50;;;1.77;;
69754;SDS011;57023;52.218;5.158;2023-04-03T11:10:21;3.85;;;1.80;;
69754;SDS011;57023;52.218;5.158;2023-04-03T11:13:07;2.95;;;1.67;;
69754;SDS011;57023;52.218;5.158;2023-04-03T11:15:37;2.45;;;1.42;;
69754;SDS011;57023;52.218;5.158;2023-04-03T11:18:08;2.03;;;1.30;;
69754;SDS011;57023;52.218;5.158;2023-04-03T11:20:36;3.65;;;1.80;;
69754;SDS011;57023;52.218;5.158;2023-04-03T11:23:21;3.85;;;1.55;;
69754;SDS011;57023;52.218;5.158;2023-04-03T11:25:51;3.47;;;1.95;;
69754;SDS011;57023;52.218;5.158;2023-04-03T11:28:22;3.13;;;1.75;;
69754;SDS011;57023;52.218;5.158;2023-04-03T11:30:54;3.22;;;2.00;;
69754;SDS011;57023;52.218;5.158;2023-04-03T11:36:00;2.42;;;1.60;;
69754;SDS011;57023;52.218;5.158;2023-04-03T11:38:47;2.92;;;1.80;;
69754;SDS011;57023;52.218;5.158;2023-04-03T11:41:14;3.30;;;1.83;;
69754;SDS011;57023;52.218;5.158;2023-04-03T11:43:41;3.95;;;1.85;;
69754;SDS011;57023;52.218;5.158;2023-04-03T11:46:08;3.13;;;1.70;;
69754;SDS011;57023;52.218;5.158;2023-04-03T11:53:37;3.50;;;1.80;;
69754;SDS011;57023;52.218;5.158;2023-04-03T12:01:48;5.60;;;2.05;;
69754;SDS011;57023;52.218;5.158;2023-04-03T12:04:14;5.83;;;2.20;;
69754;SDS011;57023;52.218;5.158;2023-04-03T12:09:56;2.95;;;1.75;;
69754;SDS011;57023;52.218;5.158;2023-04-03T12:14:55;3.03;;;1.70;;
69754;SDS011;57023;52.218;5.158;2023-04-03T12:17:26;4.35;;;1.65;;
69754;SDS011;57023;52.218;5.158;2023-04-03T12:19:52;2.00;;;1.50;;
69754;SDS011;57023;52.218;5.158;2023-04-03T12:22:19;3.25;;;1.95;;
69754;SDS011;57023;52.218;5.158;2023-04-03T12:24:46;4.40;;;1.75;;
69754;SDS011;57023;52.218;5.158;2023-04-03T12:27:20;3.75;;;1.80;;
69754;SDS011;57023;52.218;5.158;2023-04-03T12:37:48;4.07;;;1.92;;
69754;SDS011;57023;52.218;5.158;2023-04-03T12:43:42;3.40;;;1.85;;
69754;SDS011;57023;52.218;5.158;2023-04-03T12:46:35;2.95;;;1.70;;
69754;SDS011;57023;52.218;5.158;2023-04-03T12:51:51;4.00;;;1.90;;
69754;SDS011;57023;52.218;5.158;2023-04-03T12:54:26;4.80;;;2.05;;
69754;SDS011;57023;52.218;5.158;2023-04-03T12:59:43;3.55;;;1.80;;
69754;SDS011;57023;52.218;5.158;2023-04-03T13:02:20;3.97;;;1.73;;
69754;SDS011;57023;52.218;5.158;2023-04-03T13:04:51;3.75;;;1.90;;
69754;SDS011;57023;52.218;5.158;2023-04-03T13:09:54;3.53;;;1.70;;
69754;SDS011;57023;52.218;5.158;2023-04-03T13:12:24;3.20;;;1.83;;
69754;SDS011;57023;52.218;5.158;2023-04-03T13:14:54;3.88;;;2.10;;
69754;SDS011;57023;52.218;5.158;2023-04-03T13:17:22;3.70;;;2.00;;
69754;SDS011;57023;52.218;5.158;2023-04-03T13:19:47;3.65;;;2.00;;
69754;SDS011;57023;52.218;5.158;2023-04-03T13:22:29;3.88;;;2.10;;
69754;SDS011;57023;52.218;5.158;2023-04-03T13:24:59;5.05;;;2.15;;
69754;SDS011;57023;52.218;5.158;2023-04-03T13:27:29;4.10;;;1.92;;
69754;SDS011;57023;52.218;5.158;2023-04-03T13:29:57;3.53;;;1.90;;
69754;SDS011;57023;52.218;5.158;2023-04-03T13:32:24;3.50;;;1.90;;
69754;SDS011;57023;52.218;5.158;2023-04-03T13:34:50;3.83;;;1.83;;
69754;SDS011;57023;52.218;5.158;2023-04-03T13:37:20;3.95;;;2.05;;
69754;SDS011;57023;52.218;5.158;2023-04-03T13:39:57;4.47;;;2.00;;
69754;SDS011;57023;52.218;5.158;2023-04-03T13:42:30;3.95;;;2.00;;
69754;SDS011;57023;52.218;5.158;2023-04-03T13:45:09;5.38;;;2.20;;
69754;SDS011;57023;52.218;5.158;2023-04-03T13:47:45;3.63;;;1.90;;
69754;SDS011;57023;52.218;5.158;2023-04-03T13:52:40;5.80;;;2.08;;
69754;SDS011;57023;52.218;5.158;2023-04-03T13:55:17;4.35;;;2.00;;
69754;SDS011;57023;52.218;5.158;2023-04-03T14:03:23;4.05;;;2.00;;
69754;SDS011;57023;52.218;5.158;2023-04-03T14:05:51;5.28;;;2.15;;
69754;SDS011;57023;52.218;5.158;2023-04-03T14:08:19;5.78;;;2.00;;
69754;SDS011;57023;52.218;5.158;2023-04-03T14:10:45;3.30;;;2.07;;
69754;SDS011;57023;52.218;5.158;2023-04-03T14:13:15;5.97;;;2.30;;
69754;SDS011;57023;52.218;5.158;2023-04-03T14:15:43;4.25;;;2.25;;
69754;SDS011;57023;52.218;5.158;2023-04-03T14:18:12;4.20;;;2.10;;
69754;SDS011;57023;52.218;5.158;2023-04-03T14:20:38;4.65;;;1.98;;
69754;SDS011;57023;52.218;5.158;2023-04-03T14:23:04;3.63;;;1.90;;
69754;SDS011;57023;52.218;5.158;2023-04-03T14:25:29;4.57;;;2.22;;
69754;SDS011;57023;52.218;5.158;2023-04-03T14:27:54;4.73;;;2.17;;
69754;SDS011;57023;52.218;5.158;2023-04-03T14:30:25;3.67;;;1.95;;
69754;SDS011;57023;52.218;5.158;2023-04-03T14:32:56;5.07;;;2.20;;
69754;SDS011;57023;52.218;5.158;2023-04-03T14:35:21;4.33;;;2.10;;
69754;SDS011;57023;52.218;5.158;2023-04-03T14:37:47;4.50;;;2.17;;
69754;SDS011;57023;52.218;5.158;2023-04-03T14:40:17;3.78;;;2.10;;
69754;SDS011;57023;52.218;5.158;2023-04-03T14:42:45;3.70;;;2.20;;
69754;SDS011;57023;52.218;5.158;2023-04-03T14:45:13;4.40;;;2.20;;
69754;SDS011;57023;52.218;5.158;2023-04-03T14:47:46;4.57;;;2.30;;
69754;SDS011;57023;52.218;5.158;2023-04-03T14:50:15;4.63;;;2.33;;
69754;SDS011;57023;52.218;5.158;2023-04-03T14:52:43;6.70;;;2.38;;
69754;SDS011;57023;52.218;5.158;2023-04-03T14:55:11;3.75;;;2.08;;
69754;SDS011;57023;52.218;5.158;2023-04-03T14:57:37;6.35;;;2.30;;
69754;SDS011;57023;52.218;5.158;2023-04-03T15:00:04;3.88;;;2.30;;
69754;SDS011;57023;52.218;5.158;2023-04-03T15:02:36;4.80;;;2.35;;
69754;SDS011;57023;52.218;5.158;2023-04-03T15:05:03;4.85;;;2.55;;
69754;SDS011;57023;52.218;5.158;2023-04-03T15:07:30;4.47;;;2.40;;
69754;SDS011;57023;52.218;5.158;2023-04-03T15:10:00;4.70;;;2.10;;
69754;SDS011;57023;52.218;5.158;2023-04-03T15:12:27;4.45;;;2.33;;
69754;SDS011;57023;52.218;5.158;2023-04-03T15:14:53;2.67;;;1.77;;
69754;SDS011;57023;52.218;5.158;2023-04-03T15:17:19;4.22;;;2.08;;
69754;SDS011;57023;52.218;5.158;2023-04-03T15:19:46;5.32;;;2.30;;
69754;SDS011;57023;52.218;5.158;2023-04-03T15:22:13;3.67;;;2.03;;
69754;SDS011;57023;52.218;5.158;2023-04-03T15:24:40;4.95;;;2.25;;
69754;SDS011;57023;52.218;5.158;2023-04-03T15:27:05;4.90;;;2.00;;
69754;SDS011;57023;52.218;5.158;2023-04-03T15:29:31;5.97;;;2.72;;
69754;SDS011;57023;52.218;5.158;2023-04-03T15:31:56;4.40;;;2.40;;
69754;SDS011;57023;52.218;5.158;2023-04-03T15:34:22;5.20;;;2.40;;
69754;SDS011;57023;52.218;5.158;2023-04-03T15:36:47;4.75;;;2.30;;
69754;SDS011;57023;52.218;5.158;2023-04-03T15:39:12;5.47;;;2.17;;
69754;SDS011;57023;52.218;5.158;2023-04-03T15:41:38;5.80;;;2.50;;
69754;SDS011;57023;52.218;5.158;2023-04-03T15:44:03;4.03;;;2.20;;
69754;SDS011;57023;52.218;5.158;2023-04-03T15:46:28;5.63;;;2.50;;
69754;SDS011;57023;52.218;5.158;2023-04-03T15:48:54;4.35;;;2.17;;
69754;SDS011;57023;52.218;5.158;2023-04-03T15:51:19;4.65;;;2.38;;
69754;SDS011;57023;52.218;5.158;2023-04-03T15:53:44;4.65;;;2.30;;
69754;SDS011;57023;52.218;5.158;2023-04-03T15:56:10;4.65;;;2.47;;
69754;SDS011;57023;52.218;5.158;2023-04-03T15:58:36;5.33;;;2.43;;
69754;SDS011;57023;52.218;5.158;2023-04-03T16:01:02;4.35;;;2.20;;
69754;SDS011;57023;52.218;5.158;2023-04-03T16:03:27;4.57;;;2.30;;
69754;SDS011;57023;52.218;5.158;2023-04-03T16:05:52;4.72;;;2.50;;
69754;SDS011;57023;52.218;5.158;2023-04-03T16:08:18;4.47;;;2.17;;
69754;SDS011;57023;52.218;5.158;2023-04-03T16:10:43;5.18;;;2.22;;
69754;SDS011;57023;52.218;5.158;2023-04-03T16:13:10;5.20;;;2.40;;
69754;SDS011;57023;52.218;5.158;2023-04-03T16:15:36;5.25;;;2.30;;
69754;SDS011;57023;52.218;5.158;2023-04-03T16:18:05;3.85;;;2.10;;
69754;SDS011;57023;52.218;5.158;2023-04-03T16:20:30;7.20;;;2.38;;
69754;SDS011;57023;52.218;5.158;2023-04-03T16:22:56;3.80;;;2.10;;
69754;SDS011;57023;52.218;5.158;2023-04-03T16:25:22;4.23;;;2.30;;
69754;SDS011;57023;52.218;5.158;2023-04-03T16:27:48;4.47;;;2.28;;
69754;SDS011;57023;52.218;5.158;2023-04-03T16:30:13;4.03;;;2.17;;